Latest Weather Observations for Port Pirie Airport AWS

IDS60801

Issued at 3:11 pm CST Wednesday 20 June 2018 (issued every 10 minutes, with the page automatically refreshed every 10 minutes)

About weather observations | Map of weather stations | Latest weather observations for SA | Other Formats
Station Details ID: 021139 Name: PORT PIRIE AERODROME AWS Lat: -33.24 Lon: 138.00 Height: 12.0 m
Data from the previous 72 hours. | See also: Recent months for locations in South Australia
Date/Time
CST
Temp
°C
App
Temp
°C
Dew
Point
°C
Rel
Hum
%
Delta-T
°C
Wind Press
QNH
hPa
Press
MSL
hPa
Rain since
9am
mm
Dir  Spd
km/h
Gust
km/h
Spd
kts
Gust
kts
20/03:00pm 14.6 10.4 3.7 48 4.9 N 15 20 8 11 1025.1 1025.1 0.0
20/02:30pm 13.9 9.3 3.9 51 4.5 NNW 17 22 9 12 1025.1 1025.1 0.0
20/02:00pm 14.3 9.3 3.7 49 4.8 NNW 19 22 10 12 1025.4 1025.4 0.0
20/01:30pm 13.9 9.3 3.7 50 4.6 NNW 17 24 9 13 1025.2 1025.2 0.0
20/01:00pm 14.1 8.6 3.8 50 4.7 NNW 22 26 12 14 1025.5 1025.5 0.0
20/12:30pm 14.0 8.3 2.9 47 4.9 NNW 22 26 12 14 1025.5 1025.5 0.0
20/12:00pm 13.7 6.5 3.2 49 4.7 NNW 30 37 16 20 1026.1 1026.1 0.0
20/11:30am 13.7 7.7 3.5 50 4.6 NNW 24 32 13 17 1026.2 1026.2 0.0
20/11:00am 13.1 6.9 2.4 48 4.7 NNW 24 28 13 15 1026.4 1026.4 0.0
20/10:30am 13.3 6.5 3.1 50 4.5 N 28 35 15 19 1026.6 1026.6 0.0
20/10:00am 11.9 6.5 4.6 61 3.3 N 22 30 12 16 1026.7 1026.7 0.0
20/09:30am 11.2 6.3 5.1 66 2.8 N 20 28 11 15 1026.8 1026.8 0.0
20/09:00am 9.8 6.8 7.6 86 1.0 N 13 15 7 8 1026.5 1026.5 0.0
20/08:30am 6.0 2.7 4.8 92 0.5 NE 11 13 6 7 1026.2 1026.2 0.0
20/08:00am 5.9 2.6 4.5 91 0.6 NE 11 11 6 6 1026.1 1026.1 0.0
20/07:30am 6.0 2.6 3.8 86 0.9 NNE 11 15 6 8 1025.8 1025.8 0.0
20/07:00am 7.0 3.8 5.2 88 0.8 NNW 11 13 6 7 1025.5 1025.5 0.0
20/06:30am 5.7 3.1 4.0 89 0.7 NNW 7 9 4 5 1025.2 1025.2 0.0
20/06:00am 5.5 4.0 3.0 84 1.0 CALM 0 0 0 0 1024.9 1024.9 0.0
20/05:30am 6.6 3.8 3.0 78 1.5 NNW 7 7 4 4 1024.7 1024.7 0.0
20/05:00am 7.4 3.9 3.5 76 1.7 N 11 13 6 7 1024.4 1024.4 0.0
20/04:30am 7.4 2.9 4.2 80 1.4 N 17 20 9 11 1024.6 1024.6 0.0
20/04:00am 7.5 3.9 5.0 84 1.1 NNE 13 17 7 9 1024.6 1024.6 0.0
20/03:30am 6.7 2.5 3.7 81 1.3 NNE 15 19 8 10 1024.8 1024.8 0.0
20/03:00am 6.3 1.9 2.8 78 1.4 N 15 17 8 9 1025.1 1025.1 0.0
20/02:30am 6.5 2.5 2.8 77 1.5 N 13 17 7 9 1025.0 1025.0 0.0
20/02:00am 6.6 2.7 3.2 79 1.4 N 13 15 7 8 1024.9 1024.9 0.0
20/01:30am 6.6 2.7 3.2 79 1.4 N 13 15 7 8 1024.6 1024.6 0.0
20/01:00am 6.5 2.8 2.2 74 1.8 NNE 11 13 6 7 1024.6 1024.6 0.0
20/12:30am 6.7 2.7 2.8 76 1.6 NE 13 15 7 8 1024.7 1024.7 0.0
20/12:00am 7.2 3.7 3.3 76 1.6 N 11 13 6 7 1025.2 1025.2 0.0
 
Date/Time
CST
Temp
°C
App
Temp
°C
Dew
Point
°C
Rel
Hum
%
Delta-T
°C
Wind Press
QNH
hPa
Press
MSL
hPa
Rain since
9am
mm
Dir  Spd
km/h
Gust
km/h
Spd
kts
Gust
kts
19/11:30pm 6.9 3.6 2.6 74 1.8 NW 9 9 5 5 1025.3 1025.3 0.0
19/11:00pm 8.5 5.7 2.9 68 2.4 NNE 7 9 4 5 1025.1 1025.1 0.0
19/10:30pm 8.3 4.3 3.0 69 2.2 NNE 13 15 7 8 1025.0 1025.0 0.0
19/10:00pm 8.9 4.6 3.3 68 2.4 NNE 15 17 8 9 1024.8 1024.8 0.0
19/09:30pm 8.7 4.8 3.5 70 2.2 N 13 17 7 9 1024.9 1024.9 0.0
19/09:00pm 8.6 4.7 3.6 71 2.1 NNE 13 17 7 9 1024.9 1024.9 0.0
19/08:30pm 8.2 4.4 4.0 75 1.8 N 13 17 7 9 1025.2 1025.2 0.0
19/08:00pm 7.7 4.6 3.6 75 1.8 NNE 9 15 5 8 1025.0 1025.0 0.0
19/07:30pm 7.3 3.4 3.2 75 1.7 NNE 13 15 7 8 1025.3 1025.3 0.0
19/07:00pm 8.4 4.6 4.0 74 1.9 NNE 13 15 7 8 1025.3 1025.3 0.0
19/06:30pm 9.4 5.3 4.4 71 2.2 N 15 19 8 10 1025.3 1025.3 0.0
19/06:00pm 9.5 5.0 4.1 69 2.4 N 17 20 9 11 1025.6 1025.6 0.0
19/05:30pm 9.8 5.3 4.0 67 2.5 NNW 17 20 9 11 1025.8 1025.8 0.0
19/05:00pm 9.8 5.6 3.8 66 2.6 N 15 19 8 10 1025.5 1025.5 0.0
19/04:30pm 10.5 5.9 3.8 63 2.9 N 17 20 9 11 1025.6 1025.6 0.0
19/04:00pm 10.8 5.9 4.0 63 3.0 N 19 22 10 12 1025.5 1025.5 0.0
19/03:30pm 11.0 5.8 3.8 61 3.2 NNW 20 28 11 15 1025.5 1025.5 0.0
19/03:00pm 11.4 6.3 3.9 60 3.3 N 20 28 11 15 1024.8 1024.8 0.0
19/02:30pm 11.2 5.3 4.0 61 3.2 N 24 33 13 18 1025.2 1025.2 0.0
19/02:00pm 10.9 4.7 4.4 64 2.9 N 26 35 14 19 1025.6 1025.6 0.0
19/01:30pm 11.2 4.7 4.9 65 2.8 N 28 35 15 19 1025.6 1025.6 0.0
19/01:00pm 11.6 5.6 5.5 66 2.8 N 26 33 14 18 1025.9 1025.9 0.0
19/12:30pm 11.2 4.4 4.9 65 2.8 N 30 39 16 21 1026.3 1026.3 0.0
19/12:00pm 10.9 3.7 5.2 68 2.6 NNW 32 39 17 21 1027.0 1027.0 0.0
19/11:30am 10.8 4.3 4.9 67 2.7 NNW 28 35 15 19 1027.4 1027.4 0.0
19/11:00am 11.2 6.2 6.3 72 2.3 NNW 22 28 12 15 1027.7 1027.7 0.0
19/10:30am 11.1 6.3 5.4 68 2.6 N 20 26 11 14 1027.6 1027.6 0.0
19/10:00am 10.3 6.3 4.9 69 2.4 N 15 22 8 12 1027.7 1027.7 0.0
19/09:30am 9.6 5.6 5.0 73 2.1 N 15 20 8 11 1027.6 1027.6 0.0
19/09:00am 9.5 5.1 4.9 73 2.0 N 17 20 9 11 1027.6 1027.6 0.0
19/08:30am 8.0 4.0 6.5 90 0.7 N 17 20 9 11 1027.4 1027.4 0.0
19/08:00am 5.5 1.6 5.4 99 0.0 N 15 19 8 10 1027.4 1027.4 0.0
19/07:30am 2.2 -1.2 2.1 99 0.0 N 9 11 5 6 1027.3 1027.3 0.0
19/07:00am 2.2 -1.2 2.1 99 0.0 N 9 13 5 7 1027.3 1027.3 0.0
19/06:30am 1.6 -1.9 1.5 99 0.0 NNE 9 9 5 5 1027.0 1027.0 0.0
19/06:00am 2.0 -0.4 1.9 99 0.0 NNE 4 7 2 4 1027.4 1027.4 0.0
19/05:30am 1.3 -1.3 0.9 97 0.1 E 4 6 2 3 1027.3 1027.3 0.0
19/05:00am 2.6 -0.4 2.3 98 0.1 NNE 7 9 4 5 1027.4 1027.4 0.0
19/04:30am 3.4 0.2 3.3 99 0.0 NE 9 9 5 5 1027.3 1027.3 0.0
19/04:00am 3.7 0.2 3.6 99 0.0 NNE 11 13 6 7 1027.7 1027.7 0.0
19/03:30am 2.7 0.0 2.6 99 0.0 NNE 6 9 3 5 1028.1 1028.1 0.0
19/03:00am 2.4 -0.4 2.3 99 0.0 ENE 6 7 3 4 1027.8 1027.8 0.0
19/02:30am 2.0 -1.0 1.9 99 0.0 E 7 9 4 5 1027.8 1027.8 0.0
19/02:00am 2.6 1.0 2.5 99 0.0 CALM 0 0 0 0 1027.5 1027.5 0.0
19/01:30am 2.3 0.3 2.2 99 0.0 SE 2 7 1 4 1027.7 1027.7 0.0
19/01:00am 2.8 0.1 2.7 99 0.0 NE 6 7 3 4 1027.7 1027.7 0.0
19/12:30am 4.3 0.9 4.2 99 0.0 ENE 11 13 6 7 1027.5 1027.5 0.0
19/12:00am 3.9 0.1 3.8 99 0.0 ENE 13 13 7 7 1027.7 1027.7 0.0
 
Date/Time
CST
Temp
°C
App
Temp
°C
Dew
Point
°C
Rel
Hum
%
Delta-T
°C
Wind Press
QNH
hPa
Press
MSL
hPa
Rain since
9am
mm
Dir  Spd
km/h
Gust
km/h
Spd
kts
Gust
kts
18/11:30pm 3.7 0.2 3.6 99 0.0 ENE 11 13 6 7 1028.4 1028.4 0.0
18/11:00pm 4.8 1.5 4.7 99 0.0 E 11 15 6 8 1029.2 1029.2 0.0
18/10:30pm 4.7 0.6 4.6 99 0.0 SE 15 17 8 9 1029.2 1029.2 0.0
18/10:00pm 4.6 -0.3 4.3 98 0.1 SE 19 20 10 11 1029.0 1029.0 0.0
18/09:30pm 4.5 0.7 3.8 95 0.3 SE 13 15 7 8 1029.2 1029.2 0.0
18/09:00pm 5.1 1.3 4.1 93 0.4 ESE 13 15 7 8 1028.9 1028.9 0.0
18/08:30pm 5.7 2.0 4.3 91 0.6 ESE 13 15 7 8 1028.3 1028.3 0.0
18/08:00pm 6.6 2.9 4.6 87 0.9 ESE 13 15 7 8 1028.0 1028.0 0.0
18/07:30pm 7.1 3.3 4.1 81 1.3 SE 13 15 7 8 1028.1 1028.1 0.0
18/07:00pm 8.9 5.6 4.7 75 1.9 ESE 11 13 6 7 1028.6 1028.6 0.0
18/06:30pm 10.0 7.2 5.0 71 2.2 ESE 9 13 5 7 1028.5 1028.5 0.0
18/06:00pm 10.7 7.2 5.3 69 2.4 ESE 13 17 7 9 1028.7 1028.7 0.0
18/05:30pm 11.2 7.3 5.3 67 2.7 ESE 15 17 8 9 1028.9 1028.9 0.0
18/05:00pm 11.6 8.5 5.5 66 2.8 ESE 11 17 6 9 1029.1 1029.1 0.0
18/04:30pm 12.1 8.8 4.8 61 3.3 E 11 17 6 9 1029.0 1029.0 0.0
18/04:00pm 12.6 10.2 5.1 60 3.5 SE 7 19 4 10 1029.0 1029.0 0.0
18/03:30pm 12.8 9.1 4.5 57 3.8 SE 13 19 7 10 1028.9 1028.9 0.0
18/03:00pm 12.8 10.0 5.2 60 3.5 SE 9 13 5 7 1029.3 1029.3 0.0
18/02:30pm 12.5 9.2 4.7 59 3.5 ESE 11 17 6 9 1029.5 1029.5 0.0
18/02:00pm 12.7 9.8 4.9 59 3.6 ESE 9 13 5 7 1029.4 1029.4 0.0
18/01:30pm 12.6 8.5 4.6 58 3.6 SE 15 28 8 15 1029.7 1029.7 0.0
18/01:00pm 12.7 9.8 4.7 58 3.7 SE 9 19 5 10 1030.2 1030.2 0.0
18/12:30pm 12.3 8.6 4.3 58 3.6 SE 13 19 7 10 1030.5 1030.5 0.0
18/12:00pm 12.3 8.6 4.5 59 3.5 ESE 13 20 7 11 1030.8 1030.8 0.0
18/11:30am 11.9 8.4 5.3 64 3.0 E 13 17 7 9 1031.4 1031.4 0.0
18/11:00am 11.5 9.3 7.8 78 1.8 E 9 11 5 6 1031.7 1031.7 0.0
18/10:30am 9.7 9.7 9.7 100 0.0 CALM 0 0 0 0 1032.2 1032.2 0.0
18/10:00am 8.7 7.3 8.7 100 0.0 E 6 7 3 4 1032.1 1032.1 0.0
18/09:30am 7.7 6.8 7.7 100 0.0 NW 2 7 1 4 1032.3 1032.3 0.0
18/09:00am 6.4 5.2 6.4 100 0.0 NNE 2 7 1 4 1031.9 1031.9 0.0
18/08:30am 5.1 3.2 5.1 100 0.0 NE 4 9 2 5 1031.7 1031.7 0.0
18/08:00am 4.3 1.7 4.3 100 0.0 E 7 11 4 6 1031.6 1031.6 0.0
18/07:30am 2.7 0.8 2.7 100 0.0 SSW 2 7 1 4 1031.2 1031.2 0.0
18/07:00am 2.2 0.6 2.2 100 0.0 CALM 0 0 0 0 1030.8 1030.8 0.0
18/06:30am 2.4 0.4 2.4 100 0.0 SSW 2 9 1 5 1030.4 1030.4 0.0
18/06:00am 2.7 0.4 2.7 100 0.0 S 4 11 2 6 1029.8 1029.8 0.0
18/05:30am 4.7 1.4 4.7 100 0.0 E 11 13 6 7 1029.5 1029.5 0.0
18/05:00am 3.9 0.9 3.9 100 0.0 SE 9 13 5 7 1029.5 1029.5 0.0
18/04:30am 3.9 0.1 3.9 100 0.0 SSE 13 13 7 7 1029.6 1029.6 0.0
18/04:00am 4.5 1.2 4.5 100 0.0 SSE 11 13 6 7 1030.0 1030.0 0.0
18/03:30am 5.9 2.9 5.9 100 0.0 S 11 15 6 8 1030.0 1030.0 0.0
18/03:00am 4.7 1.4 4.7 100 0.0 SE 11 11 6 6 1030.0 1030.0 0.0
18/02:30am 5.6 2.9 5.6 100 0.0 SSE 9 11 5 6 1030.0 1030.0 0.0
18/02:00am 6.0 3.4 6.0 100 0.0 SSW 9 11 5 6 1030.2 1030.2 0.0
18/01:30am 5.8 3.1 5.8 100 0.0 SSW 9 11 5 6 1030.0 1030.0 0.0
18/01:00am 5.3 2.9 5.3 100 0.0 ESE 7 9 4 5 1029.9 1029.9 0.0
18/12:30am 3.9 0.9 3.9 100 0.0 S 9 9 5 5 1030.2 1030.2 0.0
18/12:00am 4.0 1.0 4.0 100 0.0 S 9 9 5 5 1030.4 1030.4 0.0
 
Date/Time
CST
Temp
°C
App
Temp
°C
Dew
Point
°C
Rel
Hum
%
Delta-T
°C
Wind Press
QNH
hPa
Press
MSL
hPa
Rain since
9am
mm
Dir  Spd
km/h
Gust
km/h
Spd
kts
Gust
kts
17/11:30pm 4.0 1.3 3.9 99 0.0 SSE 7 9 4 5 1030.7 1030.7 0.0
17/11:00pm 5.0 2.1 4.9 99 0.0 ESE 9 11 5 6 1030.7 1030.7 0.0
17/10:30pm 5.5 2.8 5.4 99 0.0 SSE 9 11 5 6 1030.6 1030.6 0.0
17/10:00pm 5.6 3.3 5.5 99 0.0 ESE 7 9 4 5 1030.4 1030.4 0.0
17/09:30pm 6.0 3.0 5.9 99 0.0 ESE 11 13 6 7 1030.2 1030.2 0.0
17/09:00pm 6.5 2.8 6.4 99 0.0 SSW 15 15 8 8 1030.1 1030.1 0.0
17/08:30pm 7.0 3.8 6.9 99 0.0 SSW 13 15 7 8 1030.1 1030.1 0.0
17/08:00pm 7.4 4.3 7.1 98 0.1 S 13 15 7 8 1029.9 1029.9 0.0
17/07:30pm 8.4 5.1 8.0 97 0.2 SSE 15 17 8 9 1029.8 1029.8 0.0
17/07:00pm 8.9 5.6 8.1 95 0.4 SSE 15 17 8 9 1029.7 1029.7 0.0
17/06:30pm 8.9 6.1 8.5 97 0.2 SW 13 22 7 12 1029.5 1029.5 0.0
17/06:00pm 9.2 5.9 8.0 92 0.6 WSW 15 17 8 9 1029.1 1029.1 0.0
17/05:30pm 10.3 6.3 8.2 87 1.0 SW 19 22 10 12 1029.0 1029.0 0.0
17/05:00pm 11.7 6.7 8.2 79 1.7 SW 24 28 13 15 1028.7 1028.7 0.0
17/04:30pm 12.3 7.6 7.6 73 2.3 SW 22 33 12 18 1028.7 1028.7 0.0
17/04:00pm 12.6 6.9 6.6 67 2.9 SW 26 32 14 17 1028.6 1028.6 0.0
17/03:30pm 13.2 7.8 6.3 63 3.3 SW 24 32 13 17 1028.5 1028.5 0.0

Other Formats:

Comma delimited format used in spreadsheet applications
http://www.bom.gov.au/fwo/IDS60801/IDS60801.99749.axf

JavaScript Object Notation format (JSON) in row-major order
http://www.bom.gov.au/fwo/IDS60801/IDS60801.99749.json